Terminal Aerodrome Forecast
Issued by NWS

Home | Current Version | Previous Version | Text Only | Print | Product List | Glossary On
Versions: 1 2 3 4 5 6 7 8 9 10 11 12 13 14 15
000
FTUS45 KABQ 161700
TAFTCC
TAF
KTCC 161736Z 1618/1718 27015KT P6SM SCT250
     FM162000 31015KT P6SM SCT250
     FM162230 04024G34KT P6SM BKN200
     FM170100 03027G37KT P6SM SCT080
     FM170300 03019G29KT P6SM SCT060
     FM170900 05013KT P6SM BKN030=

USA.gov is the U.S. government's official web portal to all federal, state and local government web resources and services.